createdAt,value
2017-12-11T00:00:44.360Z,98.0
2017-12-11T00:01:45.741Z,97.8
2017-12-11T00:02:47.121Z,98.3
2017-12-11T00:03:48.505Z,97.7
2017-12-11T00:04:49.884Z,97.8
2017-12-11T00:05:51.262Z,98.5
2017-12-11T00:06:52.645Z,98.3
2017-12-11T00:07:54.032Z,97.8
2017-12-11T00:08:55.409Z,98.0
2017-12-11T00:09:56.793Z,97.9
2017-12-11T00:10:58.172Z,98.0
2017-12-11T00:11:59.551Z,98.5
2017-12-11T00:13:00.930Z,97.7
2017-12-11T00:14:02.308Z,98.2
2017-12-11T00:15:03.691Z,98.3
2017-12-11T00:16:05.074Z,97.9
2017-12-11T00:17:06.457Z,98.2
2017-12-11T00:18:07.836Z,98.0
2017-12-11T00:19:09.218Z,97.9
2017-12-11T00:20:10.596Z,98.0
2017-12-11T00:21:11.975Z,97.8
2017-12-11T00:22:13.357Z,97.8
2017-12-11T00:23:14.738Z,98.0
2017-12-11T00:24:16.122Z,98.2
2017-12-11T00:25:17.508Z,98.0
2017-12-11T00:26:18.888Z,98.3
2017-12-11T00:27:20.268Z,97.7
2017-12-11T00:28:21.649Z,98.6
2017-12-11T00:29:23.032Z,98.0
2017-12-11T00:30:24.413Z,97.4
2017-12-11T00:31:25.793Z,97.4
2017-12-11T00:32:27.175Z,97.2
2017-12-11T00:33:28.556Z,97.8
2017-12-11T00:34:29.944Z,97.5
2017-12-11T00:35:31.320Z,97.8
2017-12-11T00:36:32.700Z,97.3
2017-12-11T00:37:34.095Z,97.8
2017-12-11T00:38:35.505Z,97.6
2017-12-11T00:39:36.888Z,98.4
2017-12-11T00:40:38.268Z,97.9
2017-12-11T00:41:39.648Z,97.6
2017-12-11T00:42:41.029Z,97.7
2017-12-11T00:43:42.412Z,98.0
2017-12-11T00:44:43.798Z,98.3
2017-12-11T00:45:45.177Z,97.9
2017-12-11T00:46:46.562Z,98.1
2017-12-11T00:47:47.941Z,98.0
2017-12-11T00:48:49.325Z,98.1
2017-12-11T00:49:50.705Z,98.2
2017-12-11T00:50:52.088Z,98.1
2017-12-11T00:51:53.470Z,97.8
2017-12-11T00:52:54.850Z,97.9
2017-12-11T00:53:56.237Z,98.0
2017-12-11T00:54:57.616Z,98.1
2017-12-11T00:55:58.999Z,98.1
2017-12-11T00:57:00.380Z,98.4
2017-12-11T00:58:01.762Z,97.5
2017-12-11T00:59:03.148Z,98.0
2017-12-11T01:00:04.528Z,97.6
2017-12-11T01:01:05.915Z,97.4
2017-12-11T01:02:07.294Z,97.4
2017-12-11T01:03:08.674Z,97.5
2017-12-11T01:04:10.054Z,97.6
2017-12-11T01:05:11.439Z,97.5
2017-12-11T01:06:12.821Z,97.7
2017-12-11T01:07:14.205Z,97.8
2017-12-11T01:08:15.590Z,98.5
2017-12-11T01:09:16.973Z,98.1
2017-12-11T01:10:18.348Z,98.1
2017-12-11T01:11:19.731Z,98.1
2017-12-11T01:12:21.114Z,98.0
2017-12-11T01:13:22.495Z,97.9
2017-12-11T01:14:23.877Z,98.2
2017-12-11T01:15:25.259Z,97.8
2017-12-11T01:16:26.640Z,98.0
2017-12-11T01:17:28.025Z,98.4
2017-12-11T01:18:29.406Z,97.6
2017-12-11T01:19:30.788Z,97.6
2017-12-11T01:20:32.172Z,97.8
2017-12-11T01:21:33.554Z,97.4
2017-12-11T01:22:34.938Z,97.8
2017-12-11T01:23:36.316Z,97.8
2017-12-11T01:24:37.701Z,97.8
2017-12-11T01:25:39.082Z,97.5
2017-12-11T01:26:40.457Z,97.7
2017-12-11T01:27:41.887Z,97.6
2017-12-11T01:28:43.272Z,98.0
2017-12-11T01:29:44.657Z,97.4
2017-12-11T01:30:46.035Z,97.8
2017-12-11T01:31:47.415Z,97.5
2017-12-11T01:32:48.795Z,98.0
2017-12-11T01:33:50.179Z,97.5
2017-12-11T01:34:51.560Z,97.3
2017-12-11T01:35:52.946Z,97.5
2017-12-11T01:36:54.326Z,97.4
2017-12-11T01:37:55.711Z,96.9
2017-12-11T01:38:57.086Z,97.0
2017-12-11T01:39:58.467Z,97.1
2017-12-11T01:40:59.857Z,96.9
2017-12-11T01:42:01.241Z,97.0
2017-12-11T01:43:02.624Z,97.0
2017-12-11T01:44:04.010Z,97.1
2017-12-11T01:45:05.387Z,96.8
2017-12-11T01:46:06.776Z,97.0
2017-12-11T01:47:08.150Z,97.0
2017-12-11T01:48:09.528Z,97.2
2017-12-11T01:49:10.912Z,96.9
2017-12-11T01:50:12.295Z,97.1
2017-12-11T01:51:13.685Z,97.0
2017-12-11T01:52:15.068Z,96.7
2017-12-11T01:53:16.444Z,96.9
2017-12-11T01:54:17.827Z,96.5
2017-12-11T01:55:19.207Z,97.1
2017-12-11T01:56:20.585Z,96.3
2017-12-11T01:57:21.972Z,96.4
2017-12-11T01:58:23.354Z,97.2
2017-12-11T01:59:24.734Z,97.1
2017-12-11T02:00:26.118Z,96.9
2017-12-11T02:01:27.499Z,97.0
2017-12-11T02:02:28.886Z,97.1
2017-12-11T02:03:30.267Z,96.5
2017-12-11T02:04:31.647Z,97.1
2017-12-11T02:05:33.031Z,96.9
2017-12-11T02:06:34.412Z,97.0
2017-12-11T02:07:35.793Z,97.2
2017-12-11T02:08:37.174Z,97.1
2017-12-11T02:09:38.557Z,96.3
2017-12-11T02:10:39.943Z,96.4
2017-12-11T02:11:41.322Z,96.5
2017-12-11T02:12:42.706Z,96.5
2017-12-11T02:13:44.086Z,96.5
2017-12-11T02:14:45.467Z,96.6
2017-12-11T02:15:46.850Z,96.5
2017-12-11T02:16:48.269Z,96.5
2017-12-11T02:17:51.199Z,96.5
2017-12-11T02:18:52.581Z,96.5
2017-12-11T02:19:53.965Z,96.5
2017-12-11T02:20:55.348Z,96.3
2017-12-11T02:21:56.732Z,96.3
2017-12-11T02:22:58.109Z,96.4
2017-12-11T02:23:59.491Z,96.3
2017-12-11T02:25:00.870Z,95.8
2017-12-11T02:26:02.254Z,96.3
2017-12-11T02:27:03.636Z,95.9
2017-12-11T02:28:05.022Z,96.5
2017-12-11T02:29:06.402Z,95.9
2017-12-11T02:30:07.785Z,95.5
2017-12-11T02:31:09.165Z,96.5
2017-12-11T02:32:10.550Z,95.5
2017-12-11T02:33:11.934Z,96.0
2017-12-11T02:34:13.315Z,95.8
2017-12-11T02:35:14.697Z,96.3
2017-12-11T02:36:16.074Z,96.3
2017-12-11T02:37:17.457Z,96.3
2017-12-11T02:38:18.839Z,95.7
2017-12-11T02:39:20.220Z,95.8
2017-12-11T02:40:21.602Z,95.9
2017-12-11T02:41:22.991Z,95.5
2017-12-11T02:42:24.372Z,95.5
2017-12-11T02:43:25.754Z,96.0
2017-12-11T02:44:27.136Z,96.1
2017-12-11T02:45:28.524Z,96.2
2017-12-11T02:46:29.901Z,96.2
2017-12-11T02:47:31.284Z,96.3
2017-12-11T02:48:32.667Z,96.3
2017-12-11T02:49:34.048Z,96.4
2017-12-11T02:50:35.430Z,95.6
2017-12-11T02:51:36.809Z,96.1
2017-12-11T02:52:38.192Z,96.1
2017-12-11T02:53:39.572Z,95.9
2017-12-11T02:54:40.959Z,95.4
2017-12-11T02:55:42.339Z,95.5
2017-12-11T02:56:43.720Z,95.9
2017-12-11T02:57:45.100Z,95.4
2017-12-11T02:58:46.483Z,96.1
2017-12-11T02:59:47.864Z,96.0
2017-12-11T03:00:49.247Z,95.7
2017-12-11T03:01:50.631Z,96.2
2017-12-11T03:02:52.012Z,96.0
2017-12-11T03:03:53.442Z,95.9
2017-12-11T03:04:54.829Z,95.6
2017-12-11T03:05:56.206Z,95.6
2017-12-11T03:06:57.587Z,95.6
2017-12-11T03:07:58.971Z,95.9
2017-12-11T03:09:00.353Z,95.8
2017-12-11T03:10:01.738Z,95.8
2017-12-11T03:11:03.123Z,96.1
2017-12-11T03:12:04.495Z,95.9
2017-12-11T03:13:05.878Z,96.1
2017-12-11T03:14:07.259Z,95.5
2017-12-11T03:15:08.642Z,95.9
2017-12-11T03:16:10.025Z,95.7
2017-12-11T03:17:11.406Z,96.1
2017-12-11T03:18:12.787Z,96.1
2017-12-11T03:19:14.168Z,96.1
2017-12-11T03:20:15.548Z,96.5
2017-12-11T03:21:16.931Z,95.5
2017-12-11T03:22:18.314Z,96.1
2017-12-11T03:23:19.698Z,95.9
2017-12-11T03:24:21.083Z,95.9
2017-12-11T03:25:22.463Z,95.9
2017-12-11T03:26:23.842Z,96.2
2017-12-11T03:27:25.227Z,95.9
2017-12-11T03:28:26.611Z,96.5
2017-12-11T03:29:27.994Z,96.4
2017-12-11T03:30:29.381Z,96.4
2017-12-11T03:31:30.767Z,95.5
2017-12-11T03:32:32.146Z,95.7
2017-12-11T03:33:33.526Z,96.0
2017-12-11T03:34:34.906Z,95.5
2017-12-11T03:35:36.287Z,96.0
2017-12-11T03:36:37.671Z,96.0
2017-12-11T03:37:39.055Z,96.6
2017-12-11T03:38:40.438Z,95.9
2017-12-11T03:39:41.818Z,95.9
2017-12-11T03:40:43.198Z,95.7
2017-12-11T03:41:44.578Z,95.7
2017-12-11T03:42:45.961Z,96.4
2017-12-11T03:43:47.340Z,95.7
2017-12-11T03:44:48.722Z,95.8
2017-12-11T03:45:50.107Z,95.8
2017-12-11T03:46:51.489Z,95.8
2017-12-11T03:47:52.867Z,96.0
2017-12-11T03:48:54.248Z,96.5
2017-12-11T03:49:55.626Z,96.0
2017-12-11T03:50:57.013Z,96.2
2017-12-11T03:51:58.394Z,95.9
2017-12-11T03:52:59.825Z,96.2
2017-12-11T03:54:01.205Z,95.7
2017-12-11T03:55:02.583Z,95.6
2017-12-11T03:56:03.966Z,95.8
2017-12-11T03:57:05.346Z,95.8
2017-12-11T03:58:06.729Z,96.4
2017-12-11T03:59:08.112Z,96.0
2017-12-11T04:00:09.500Z,95.9
2017-12-11T04:01:10.882Z,95.7
2017-12-11T04:02:12.263Z,95.6
2017-12-11T04:03:13.644Z,96.4
2017-12-11T04:04:15.023Z,96.4
2017-12-11T04:05:16.406Z,96.3
2017-12-11T04:06:17.788Z,96.3
2017-12-11T04:07:19.174Z,96.5
2017-12-11T04:08:20.560Z,96.2
2017-12-11T04:09:21.935Z,96.3
2017-12-11T04:10:23.317Z,96.4
2017-12-11T04:11:24.698Z,96.1
2017-12-11T04:12:26.084Z,95.7
2017-12-11T04:13:27.469Z,96.2
2017-12-11T04:14:28.852Z,96.4
2017-12-11T04:15:30.237Z,96.3
2017-12-11T04:16:31.616Z,96.2
2017-12-11T04:17:32.998Z,96.4
2017-12-11T04:18:34.386Z,96.4
2017-12-11T04:19:35.761Z,96.5
2017-12-11T04:20:37.142Z,96.2
2017-12-11T04:21:38.526Z,96.5
2017-12-11T04:22:39.909Z,96.5
2017-12-11T04:23:41.288Z,96.3
2017-12-11T04:24:42.669Z,96.4
2017-12-11T04:25:44.049Z,96.1
2017-12-11T04:26:45.431Z,96.2
2017-12-11T04:27:46.818Z,96.6
2017-12-11T04:28:48.195Z,96.3
2017-12-11T04:29:49.577Z,96.3
2017-12-11T04:30:50.956Z,97.2
2017-12-11T04:31:53.217Z,97.0
2017-12-11T04:32:54.598Z,96.9
2017-12-11T04:33:55.984Z,97.1
2017-12-11T04:34:57.365Z,97.2
2017-12-11T04:35:58.749Z,97.4
2017-12-11T04:37:00.128Z,97.5
2017-12-11T04:38:01.507Z,97.4
2017-12-11T04:39:02.888Z,97.4
2017-12-11T04:40:04.268Z,97.8
2017-12-11T04:41:05.654Z,97.6
2017-12-11T04:42:07.060Z,97.5
2017-12-11T04:43:08.442Z,97.4
2017-12-11T04:44:09.821Z,97.6
2017-12-11T04:45:11.206Z,97.4
2017-12-11T04:46:12.583Z,97.4
2017-12-11T04:47:13.964Z,97.2
2017-12-11T04:48:15.349Z,97.6
2017-12-11T04:49:16.732Z,97.3
2017-12-11T04:50:18.113Z,97.8
2017-12-11T04:51:19.490Z,97.6
2017-12-11T04:52:20.872Z,97.2
2017-12-11T04:53:22.250Z,97.0
2017-12-11T04:54:23.632Z,97.4
2017-12-11T04:55:25.015Z,97.5
2017-12-11T04:56:26.401Z,96.9
2017-12-11T04:57:27.785Z,97.2
2017-12-11T04:58:29.163Z,96.8
2017-12-11T04:59:30.542Z,97.2
2017-12-11T05:00:31.928Z,96.8
2017-12-11T05:01:33.304Z,97.4
2017-12-11T05:02:34.687Z,97.0
2017-12-11T05:03:36.068Z,96.9
2017-12-11T05:04:37.457Z,97.0
2017-12-11T05:05:38.836Z,97.1
2017-12-11T05:06:40.216Z,96.8
2017-12-11T05:07:41.596Z,96.9
2017-12-11T05:08:42.977Z,96.3
2017-12-11T05:09:44.360Z,96.1
2017-12-11T05:10:45.775Z,96.6
2017-12-11T05:11:47.157Z,96.4
2017-12-11T05:12:48.540Z,96.7
2017-12-11T05:13:49.921Z,96.8
2017-12-11T05:14:51.297Z,97.0
2017-12-11T05:15:52.700Z,96.4
2017-12-11T05:16:54.058Z,96.1
2017-12-11T05:17:55.441Z,96.5
2017-12-11T05:18:56.824Z,96.1
2017-12-11T05:19:58.207Z,96.2
2017-12-11T05:20:59.586Z,96.2
2017-12-11T05:22:00.971Z,96.1
2017-12-11T05:23:02.350Z,96.4
2017-12-11T05:24:03.731Z,96.6
2017-12-11T05:25:05.115Z,96.9
2017-12-11T05:26:06.498Z,96.9
2017-12-11T05:27:07.941Z,97.1
2017-12-11T05:28:09.258Z,96.9
2017-12-11T05:29:10.639Z,97.2
2017-12-11T05:30:12.053Z,97.0
2017-12-11T05:31:13.440Z,96.4
2017-12-11T05:32:14.819Z,96.4
2017-12-11T05:33:16.201Z,96.5
2017-12-11T05:34:17.582Z,96.8
2017-12-11T05:35:18.963Z,96.6
2017-12-11T05:36:20.343Z,96.3
2017-12-11T05:37:21.724Z,96.3
2017-12-11T05:38:23.106Z,96.4
2017-12-11T05:39:24.487Z,96.5
2017-12-11T05:40:25.869Z,96.5
2017-12-11T05:41:27.250Z,96.2
2017-12-11T05:42:28.629Z,96.5
2017-12-11T05:43:30.011Z,96.5
2017-12-11T05:44:31.393Z,96.7
2017-12-11T05:45:32.775Z,96.8
2017-12-11T05:46:34.158Z,96.9
2017-12-11T05:47:35.541Z,96.3
2017-12-11T05:48:36.927Z,96.2
2017-12-11T05:49:38.303Z,96.0
2017-12-11T05:50:39.682Z,96.2
2017-12-11T05:51:41.068Z,96.0
2017-12-11T05:52:42.449Z,96.0
2017-12-11T05:53:43.831Z,96.0
2017-12-11T05:54:45.214Z,95.8
2017-12-11T05:55:46.595Z,96.3
2017-12-11T05:56:47.976Z,95.9
2017-12-11T05:57:49.363Z,95.7
2017-12-11T05:58:50.743Z,95.6
2017-12-11T05:59:52.128Z,95.6
2017-12-11T06:00:53.515Z,96.3
2017-12-11T06:01:54.895Z,96.0
2017-12-11T06:02:56.303Z,96.1
2017-12-11T06:03:57.679Z,96.0
2017-12-11T06:04:59.065Z,95.8
2017-12-11T06:06:00.442Z,95.7
2017-12-11T06:07:01.823Z,95.8
2017-12-11T06:08:03.207Z,96.0
2017-12-11T06:09:04.590Z,95.7
2017-12-11T06:10:05.974Z,96.3
2017-12-11T06:11:07.351Z,96.1
2017-12-11T06:12:08.733Z,96.6
2017-12-11T06:13:10.118Z,96.9
2017-12-11T06:14:11.495Z,96.3
2017-12-11T06:15:12.884Z,96.3
2017-12-11T06:16:14.261Z,96.6
2017-12-11T06:17:15.644Z,96.1
2017-12-11T06:18:17.023Z,95.9
2017-12-11T06:19:18.403Z,96.3
2017-12-11T06:20:19.799Z,95.9
2017-12-11T06:21:21.190Z,96.3
2017-12-11T06:22:22.575Z,96.7
2017-12-11T06:23:23.963Z,96.2
2017-12-11T06:24:25.346Z,95.9
2017-12-11T06:25:26.731Z,96.7
2017-12-11T06:26:28.107Z,97.1
2017-12-11T06:27:29.488Z,96.6
2017-12-11T06:28:30.872Z,96.0
2017-12-11T06:29:32.266Z,96.0
2017-12-11T06:30:33.648Z,96.4
2017-12-11T06:31:35.031Z,96.0
2017-12-11T06:32:36.409Z,96.1
2017-12-11T06:33:37.789Z,95.9
2017-12-11T06:34:39.169Z,95.5
2017-12-11T06:35:40.551Z,96.2
2017-12-11T06:36:42.018Z,96.3
2017-12-11T06:37:43.401Z,96.6
2017-12-11T06:38:44.782Z,95.8
2017-12-11T06:39:46.163Z,96.0
2017-12-11T06:40:47.542Z,96.2
2017-12-11T06:41:48.922Z,96.0
2017-12-11T06:42:50.308Z,96.4
2017-12-11T06:43:51.818Z,96.0
2017-12-11T06:44:53.199Z,96.0
2017-12-11T06:45:54.591Z,96.1
2017-12-11T06:46:55.973Z,96.3
2017-12-11T06:47:57.356Z,95.6
2017-12-11T06:48:58.735Z,95.6
2017-12-11T06:50:00.117Z,96.2
2017-12-11T06:51:01.497Z,96.0
2017-12-11T06:52:02.884Z,96.2
2017-12-11T06:53:04.257Z,95.8
2017-12-11T06:54:05.638Z,95.6
2017-12-11T06:55:07.018Z,95.8
2017-12-11T06:56:08.401Z,95.6
2017-12-11T06:57:09.784Z,95.9
2017-12-11T06:58:11.168Z,95.4
2017-12-11T06:59:12.549Z,95.2
2017-12-11T07:00:13.930Z,95.9
2017-12-11T07:01:15.311Z,95.5
2017-12-11T07:02:16.700Z,95.2
2017-12-11T07:03:18.077Z,95.2
2017-12-11T07:04:19.456Z,95.3
2017-12-11T07:05:20.841Z,94.5
2017-12-11T07:06:22.221Z,94.8
2017-12-11T07:07:23.603Z,94.8
2017-12-11T07:08:24.981Z,94.4
2017-12-11T07:09:26.426Z,94.3
2017-12-11T07:10:27.830Z,94.9
2017-12-11T07:11:29.210Z,95.0
2017-12-11T07:12:30.592Z,95.3
2017-12-11T07:13:31.979Z,95.1
2017-12-11T07:14:33.361Z,95.3
2017-12-11T07:15:34.743Z,95.2
2017-12-11T07:16:36.124Z,95.6
2017-12-11T07:17:37.505Z,95.6
2017-12-11T07:18:38.885Z,96.1
2017-12-11T07:19:40.268Z,95.9
2017-12-11T07:20:41.648Z,95.9
2017-12-11T07:21:43.031Z,96.3
2017-12-11T07:22:44.414Z,96.4
2017-12-11T07:23:45.790Z,96.6
2017-12-11T07:24:47.175Z,96.4
2017-12-11T07:25:48.557Z,96.3
2017-12-11T07:26:49.937Z,96.9
2017-12-11T07:27:51.320Z,97.3
2017-12-11T07:28:52.700Z,97.1
2017-12-11T07:29:54.082Z,97.5
2017-12-11T07:30:55.465Z,97.8
2017-12-11T07:31:56.848Z,97.5
2017-12-11T07:32:58.229Z,97.8
2017-12-11T07:33:59.610Z,97.7
2017-12-11T07:35:01.001Z,98.0
2017-12-11T07:36:02.380Z,98.1
2017-12-11T07:37:03.761Z,98.1
2017-12-11T07:38:05.142Z,98.1
2017-12-11T07:39:06.524Z,97.8
2017-12-11T07:40:07.908Z,98.3
2017-12-11T07:41:09.290Z,98.1
2017-12-11T07:42:10.675Z,98.1
2017-12-11T07:43:12.055Z,98.9
2017-12-11T07:44:13.436Z,99.2
2017-12-11T07:45:14.816Z,98.9
2017-12-11T07:46:16.205Z,99.4
2017-12-11T07:47:17.587Z,99.2
2017-12-11T07:48:18.968Z,99.2
2017-12-11T07:49:20.351Z,98.9
2017-12-11T07:50:21.736Z,99.5
2017-12-11T07:51:23.114Z,99.5
2017-12-11T07:52:24.499Z,100.0
2017-12-11T07:53:25.881Z,99.9
2017-12-11T07:54:27.266Z,100.0
2017-12-11T07:55:28.647Z,99.4
2017-12-11T07:56:30.031Z,99.6
2017-12-11T07:57:31.410Z,99.9
2017-12-11T07:58:32.864Z,99.7
2017-12-11T07:59:34.284Z,99.9
2017-12-11T08:00:35.684Z,99.9
2017-12-11T08:01:37.065Z,99.9
2017-12-11T08:02:38.450Z,100.0
2017-12-11T08:03:39.834Z,99.7
2017-12-11T08:04:41.215Z,100.0
2017-12-11T08:05:42.596Z,99.9
2017-12-11T08:06:43.980Z,99.7
2017-12-11T08:07:45.363Z,100.0
2017-12-11T08:08:46.742Z,99.6
2017-12-11T08:09:48.127Z,99.5
2017-12-11T08:10:49.512Z,100.0
2017-12-11T08:11:50.896Z,100.0
2017-12-11T08:12:52.280Z,100.0
2017-12-11T08:13:53.658Z,100.0
2017-12-11T08:14:55.041Z,100.0
2017-12-11T08:15:56.429Z,100.0
2017-12-11T08:16:57.815Z,100.0
2017-12-11T08:17:59.200Z,100.0
2017-12-11T08:19:00.584Z,100.0
2017-12-11T08:20:01.967Z,100.0
2017-12-11T08:21:03.348Z,100.0
2017-12-11T08:22:04.732Z,100.0
2017-12-11T08:23:06.116Z,100.0
2017-12-11T08:24:07.503Z,100.0
2017-12-11T08:25:08.885Z,100.0
2017-12-11T08:26:10.280Z,100.0
2017-12-11T08:27:11.653Z,100.0
2017-12-11T08:28:13.035Z,100.0
2017-12-11T08:29:14.419Z,100.0
2017-12-11T08:30:15.804Z,100.0
2017-12-11T08:31:17.187Z,100.0
2017-12-11T08:32:18.571Z,100.0
2017-12-11T08:33:19.954Z,100.0
2017-12-11T08:34:21.338Z,100.0
2017-12-11T08:35:22.727Z,100.0
2017-12-11T08:36:24.112Z,100.0
2017-12-11T08:37:25.494Z,100.0
2017-12-11T08:38:26.877Z,100.0
2017-12-11T08:39:28.260Z,100.0
2017-12-11T08:40:29.642Z,100.0
2017-12-11T08:41:31.026Z,100.0
2017-12-11T08:42:32.406Z,100.0
2017-12-11T08:43:33.789Z,100.0
2017-12-11T08:44:35.170Z,100.0
2017-12-11T08:45:36.553Z,100.0
2017-12-11T08:46:37.941Z,99.8
2017-12-11T08:47:39.321Z,99.9
2017-12-11T08:48:40.772Z,99.9
2017-12-11T08:49:42.167Z,100.0
2017-12-11T08:50:43.551Z,100.0
2017-12-11T08:51:44.939Z,100.0
2017-12-11T08:52:46.323Z,100.0
2017-12-11T08:53:47.706Z,100.0
2017-12-11T08:54:49.093Z,100.0
2017-12-11T08:55:50.477Z,100.0
2017-12-11T08:56:51.880Z,100.0
2017-12-11T08:57:53.279Z,100.0
2017-12-11T08:58:54.667Z,100.0
2017-12-11T08:59:56.050Z,100.0
2017-12-11T09:00:57.398Z,100.0
2017-12-11T09:01:58.778Z,100.0
2017-12-11T09:03:00.164Z,100.0
2017-12-11T09:04:01.548Z,100.0
2017-12-11T09:05:02.936Z,100.0
2017-12-11T09:06:04.321Z,100.0
2017-12-11T09:07:05.709Z,100.0
2017-12-11T09:08:07.092Z,100.0
2017-12-11T09:09:08.475Z,100.0
2017-12-11T09:10:09.856Z,100.0
2017-12-11T09:11:11.242Z,100.0
2017-12-11T09:12:12.623Z,100.0
2017-12-11T09:13:14.008Z,100.0
2017-12-11T09:14:15.395Z,100.0
2017-12-11T09:15:16.781Z,100.0
2017-12-11T09:16:18.165Z,100.0
2017-12-11T09:17:19.549Z,100.0
2017-12-11T09:18:20.930Z,100.0
2017-12-11T09:19:22.315Z,100.0
2017-12-11T09:20:23.703Z,100.0
2017-12-11T09:21:25.087Z,100.0
2017-12-11T09:22:26.472Z,100.0
2017-12-11T09:23:27.855Z,100.0
2017-12-11T09:24:29.240Z,100.0
2017-12-11T09:25:30.621Z,100.0
2017-12-11T09:26:32.008Z,100.0
2017-12-11T09:27:33.396Z,100.0
2017-12-11T09:28:34.770Z,100.0
2017-12-11T09:29:36.164Z,100.0
2017-12-11T09:30:37.546Z,100.0
2017-12-11T09:31:38.928Z,100.0
2017-12-11T09:32:40.309Z,100.0
2017-12-11T09:33:41.694Z,100.0
2017-12-11T09:34:43.082Z,100.0
2017-12-11T09:35:44.469Z,100.0
2017-12-11T09:36:45.857Z,100.0
2017-12-11T09:37:47.260Z,100.0
2017-12-11T09:38:48.647Z,100.0
2017-12-11T09:39:50.033Z,100.0
2017-12-11T09:40:51.417Z,100.0
2017-12-11T09:41:52.804Z,100.0
2017-12-11T09:42:54.191Z,100.0
2017-12-11T09:43:55.578Z,100.0
2017-12-11T09:44:56.960Z,100.0
2017-12-11T09:45:58.345Z,100.0
2017-12-11T09:46:59.731Z,100.0
2017-12-11T09:48:01.117Z,100.0
2017-12-11T09:49:02.500Z,100.0
2017-12-11T09:50:03.888Z,100.0
2017-12-11T09:51:05.276Z,100.0
2017-12-11T09:52:06.661Z,100.0
2017-12-11T09:53:08.044Z,100.0
2017-12-11T09:54:09.462Z,100.0
2017-12-11T09:55:10.904Z,100.0
2017-12-11T09:56:12.293Z,100.0
2017-12-11T09:57:13.678Z,100.0
2017-12-11T09:58:15.064Z,100.0
2017-12-11T09:59:16.463Z,100.0
2017-12-11T10:00:17.847Z,100.0
2017-12-11T10:01:19.296Z,100.0
2017-12-11T10:02:20.688Z,100.0
2017-12-11T10:03:22.223Z,100.0
2017-12-11T10:04:23.612Z,100.0
2017-12-11T10:05:25.002Z,100.0
2017-12-11T10:06:26.388Z,100.0
2017-12-11T10:07:27.773Z,100.0
2017-12-11T10:08:29.155Z,100.0
2017-12-11T10:09:30.543Z,100.0
2017-12-11T10:10:31.930Z,100.0
2017-12-11T10:11:33.314Z,100.0
2017-12-11T10:12:34.702Z,100.0
2017-12-11T10:13:36.087Z,100.0
2017-12-11T10:14:37.472Z,100.0
2017-12-11T10:15:38.855Z,100.0
2017-12-11T10:16:40.244Z,100.0
2017-12-11T10:17:41.630Z,100.0
2017-12-11T10:18:43.017Z,100.0
2017-12-11T10:19:44.404Z,100.0
2017-12-11T10:20:45.789Z,100.0
2017-12-11T10:21:47.173Z,100.0
2017-12-11T10:22:48.559Z,100.0
2017-12-11T10:23:49.943Z,100.0
2017-12-11T10:24:51.330Z,100.0
2017-12-11T10:25:52.716Z,100.0
2017-12-11T10:26:54.133Z,100.0
2017-12-11T10:27:55.525Z,100.0
2017-12-11T10:28:56.909Z,100.0
2017-12-11T10:29:58.295Z,100.0
2017-12-11T10:30:59.681Z,100.0
2017-12-11T10:32:01.067Z,100.0
2017-12-11T10:33:02.454Z,100.0
2017-12-11T10:34:03.842Z,100.0
2017-12-11T10:35:05.233Z,100.0
2017-12-11T10:36:06.615Z,100.0
2017-12-11T10:37:08.003Z,100.0
2017-12-11T10:38:09.383Z,100.0
2017-12-11T10:39:10.876Z,100.0
2017-12-11T10:40:12.363Z,100.0
2017-12-11T10:41:13.753Z,100.0
2017-12-11T10:42:15.137Z,100.0
2017-12-11T10:43:16.520Z,100.0
2017-12-11T10:44:17.907Z,100.0
2017-12-11T10:45:19.294Z,100.0
2017-12-11T10:46:20.679Z,100.0
2017-12-11T10:47:22.067Z,100.0
2017-12-11T10:48:23.454Z,100.0
2017-12-11T10:49:24.835Z,100.0
2017-12-11T10:50:26.220Z,100.0
2017-12-11T10:51:27.606Z,100.0
2017-12-11T10:52:28.994Z,100.0
2017-12-11T10:53:30.380Z,100.0
2017-12-11T10:54:31.767Z,100.0
2017-12-11T10:55:33.157Z,100.0
2017-12-11T10:56:34.539Z,100.0
2017-12-11T10:57:35.930Z,100.0
2017-12-11T10:58:37.309Z,100.0
2017-12-11T10:59:38.695Z,100.0
2017-12-11T11:00:40.080Z,100.0
2017-12-11T11:01:41.468Z,100.0
2017-12-11T11:02:42.853Z,100.0
2017-12-11T11:03:44.240Z,100.0
2017-12-11T11:04:45.624Z,100.0
2017-12-11T11:05:47.016Z,100.0
2017-12-11T11:06:48.402Z,100.0
2017-12-11T11:07:50.569Z,100.0
2017-12-11T11:08:51.186Z,100.0
2017-12-11T11:09:52.580Z,100.0
2017-12-11T11:10:53.970Z,100.0
2017-12-11T11:11:55.377Z,100.0
2017-12-11T11:12:56.768Z,100.0
2017-12-11T11:13:58.158Z,100.0
2017-12-11T11:14:59.545Z,100.0
2017-12-11T11:16:00.965Z,100.0
2017-12-11T11:17:02.370Z,100.0
2017-12-11T11:18:03.805Z,100.0
2017-12-11T11:19:05.263Z,100.0
2017-12-11T11:20:06.675Z,100.0
2017-12-11T11:21:08.067Z,100.0
2017-12-11T11:22:09.455Z,100.0
2017-12-11T11:23:11.760Z,100.0
2017-12-11T11:24:13.379Z,100.0
2017-12-11T11:25:14.820Z,100.0
2017-12-11T11:26:16.211Z,100.0
2017-12-11T11:27:17.592Z,100.0
2017-12-11T11:28:18.979Z,100.0
2017-12-11T11:29:20.365Z,100.0
2017-12-11T11:30:21.754Z,100.0
2017-12-11T11:31:23.142Z,100.0
2017-12-11T11:32:24.528Z,100.0
2017-12-11T11:33:25.912Z,100.0
2017-12-11T11:34:27.297Z,100.0
2017-12-11T11:35:28.690Z,100.0
2017-12-11T11:36:30.069Z,100.0
2017-12-11T11:37:31.454Z,100.0
2017-12-11T11:38:32.845Z,100.0
2017-12-11T11:39:34.229Z,100.0
2017-12-11T11:40:35.614Z,100.0
2017-12-11T11:41:37.002Z,100.0
2017-12-11T11:42:38.388Z,100.0
2017-12-11T11:43:39.775Z,100.0
2017-12-11T11:44:41.163Z,100.0
2017-12-11T11:45:42.548Z,100.0
2017-12-11T11:46:43.934Z,100.0
2017-12-11T11:47:45.320Z,100.0
2017-12-11T11:48:46.706Z,100.0
2017-12-11T11:49:48.095Z,100.0
2017-12-11T11:50:49.480Z,100.0
2017-12-11T11:51:50.869Z,100.0
2017-12-11T11:52:52.257Z,100.0
2017-12-11T11:53:53.641Z,100.0
2017-12-11T11:54:55.030Z,100.0
2017-12-11T11:55:56.414Z,100.0
2017-12-11T11:56:57.798Z,100.0
2017-12-11T11:57:59.187Z,100.0
2017-12-11T11:59:00.567Z,100.0
2017-12-11T12:00:02.018Z,100.0
2017-12-11T12:01:03.474Z,100.0
2017-12-11T12:02:04.862Z,100.0
2017-12-11T12:03:06.374Z,100.0
2017-12-11T12:04:07.811Z,100.0
2017-12-11T12:05:09.150Z,100.0
2017-12-11T12:06:10.594Z,100.0
2017-12-11T12:07:11.983Z,100.0
2017-12-11T12:08:13.368Z,100.0
2017-12-11T12:09:14.759Z,100.0
2017-12-11T12:10:16.140Z,100.0
2017-12-11T12:11:17.523Z,100.0
2017-12-11T12:12:18.911Z,100.0
2017-12-11T12:13:20.296Z,100.0
2017-12-11T12:14:21.680Z,100.0
2017-12-11T12:15:23.067Z,100.0
2017-12-11T12:16:24.451Z,100.0
2017-12-11T12:17:25.832Z,100.0
2017-12-11T12:18:27.218Z,100.0
2017-12-11T12:19:28.609Z,100.0
2017-12-11T12:20:29.992Z,100.0
2017-12-11T12:21:31.378Z,100.0
2017-12-11T12:22:32.763Z,100.0
2017-12-11T12:23:34.202Z,100.0
2017-12-11T12:24:35.589Z,100.0
2017-12-11T12:25:36.973Z,100.0
2017-12-11T12:26:38.388Z,100.0
2017-12-11T12:27:39.795Z,100.0
2017-12-11T12:28:41.163Z,100.0
2017-12-11T12:29:42.547Z,100.0
2017-12-11T12:30:43.932Z,100.0
2017-12-11T12:31:45.316Z,100.0
2017-12-11T12:32:46.701Z,100.0
2017-12-11T12:33:48.089Z,100.0
2017-12-11T12:34:49.479Z,100.0
2017-12-11T12:35:50.868Z,100.0
2017-12-11T12:36:52.258Z,100.0
2017-12-11T12:37:53.641Z,100.0
2017-12-11T12:38:55.030Z,100.0
2017-12-11T12:39:56.428Z,100.0
2017-12-11T12:40:57.825Z,100.0
2017-12-11T12:41:59.215Z,100.0
2017-12-11T12:43:00.602Z,100.0
2017-12-11T12:44:01.989Z,100.0
2017-12-11T12:45:03.381Z,100.0
2017-12-11T12:46:04.767Z,100.0
2017-12-11T12:47:06.153Z,100.0
2017-12-11T12:48:07.545Z,100.0
2017-12-11T12:49:08.938Z,100.0
2017-12-11T12:50:10.321Z,100.0
2017-12-11T12:51:11.705Z,100.0
2017-12-11T12:52:13.091Z,100.0
2017-12-11T12:53:14.481Z,100.0
2017-12-11T12:54:15.887Z,100.0
2017-12-11T12:55:17.297Z,100.0
2017-12-11T12:56:18.684Z,100.0
2017-12-11T12:57:20.070Z,100.0
2017-12-11T12:58:21.455Z,100.0
2017-12-11T12:59:22.838Z,100.0
2017-12-11T13:00:24.224Z,100.0
2017-12-11T13:01:25.612Z,100.0
2017-12-11T13:02:27.001Z,100.0
2017-12-11T13:03:28.393Z,100.0
2017-12-11T13:04:29.775Z,100.0
2017-12-11T13:05:31.158Z,100.0
2017-12-11T13:06:32.547Z,100.0
2017-12-11T13:07:33.930Z,100.0
2017-12-11T13:08:35.388Z,100.0
2017-12-11T13:09:36.810Z,100.0
2017-12-11T13:10:38.196Z,100.0
2017-12-11T13:11:39.586Z,100.0
2017-12-11T13:12:40.970Z,100.0
2017-12-11T13:13:42.350Z,100.0
2017-12-11T13:14:43.747Z,100.0
2017-12-11T13:15:45.126Z,100.0
2017-12-11T13:16:46.512Z,100.0
2017-12-11T13:17:47.898Z,100.0
2017-12-11T13:18:49.287Z,100.0
2017-12-11T13:19:50.678Z,100.0
2017-12-11T13:20:52.064Z,100.0
2017-12-11T13:21:53.457Z,100.0
2017-12-11T13:22:54.948Z,100.0
2017-12-11T13:23:56.526Z,100.0
2017-12-11T13:24:57.913Z,100.0
2017-12-11T13:25:59.304Z,100.0
2017-12-11T13:27:00.689Z,100.0